RJTY/OKO METAR and TAF weather

Enter ICAO airport designator
Station Type Date Time Source
RJTY METAR 2019/10/15 19:37 UTC NOAA

RJTY 151937Z AUTO 34005KT 10SM -DZ OVC028 13/11 A3031 RMK AO2 DZB37 CIG 025 RWY18 SLP267 FZRANO $


Station Type Date Time Source
RJTY Decoded METAR 2019/10/15 19:37 UTC NOAA

Yokota Ab, Japan (RJTY) 35-45N 139-21E 142M
Oct 15, 2019 - 03:37 PM EDT / 2019.10.15 1937 UTC
Wind: from the NNW (340 degrees) at 6 MPH (5 KT):0
Visibility: 10 mile(s):0
Sky conditions: overcast
Weather: light drizzle
Temperature: 55 F (13 C)
Dew Point: 51 F (11 C)
Relative Humidity: 87%
Pressure (altimeter): 30.31 in. Hg (1026 hPa)
ob: RJTY 151937Z AUTO 34005KT 10SM -DZ OVC028 13/11 A3031 RMK AO2 DZB37 CIG 025 RWY18 SLP267 FZRANO
cycle: 19

Station Type Date Time Source
RJTY TAF 2019/10/15 13:03 UTC NOAA

TAF TAF RJTY 151300Z 1513/1619 04009KT 8000 -SHRA SCT015 OVC020 QNH3020INS
BECMG 1515/1516 VRB06KT 9999 NSW SCT014 BKN040 OVC060 QNH3024INS
BECMG 1606/1607 05009KT 9999 SCT014 BKN020 QNH3023INS TX22/1605Z TN12/1520Z LAST NO
AMDS AFT 1513 NEXT 1621

Example: see airport list